Time;durP1;ratioP1;P1;durP2;ratioP2;P2;SDS_P1;SDS_P2;PMS_P1;PMS_P2;Temp;Humidity;BMP_temperature;BMP_pressure;BME280_temperature;BME280_humidity;BME280_pressure;Samples;Min_cycle;Max_cycle;Signal;HPM_P1;HPM_P2
2021/11/22 00:02:09;;;;;;;15.60;12.63;;;7.20;99.90;;;;;;5012174;28;20033;-54
2021/11/22 00:04:34;;;;;;;17.55;12.27;;;7.10;99.90;;;;;;5012424;28;20060;-52
2021/11/22 00:07:00;;;;;;;19.17;12.60;;;7.10;99.90;;;;;;5011610;28;20033;-55
2021/11/22 00:09:26;;;;;;;16.83;12.90;;;7.10;99.90;;;;;;5012079;28;20096;-54
2021/11/22 00:11:51;;;;;;;127.30;76.97;;;7.10;99.90;;;;;;5012167;28;20077;-54
2021/11/22 00:14:18;;;;;;;34.70;24.27;;;7.20;99.90;;;;;;5012213;28;20029;-55
2021/11/22 00:16:44;;;;;;;25.02;15.77;;;7.10;99.90;;;;;;5012058;28;20033;-53
2021/11/22 00:19:10;;;;;;;21.98;14.05;;;7.10;99.90;;;;;;5010670;28;20022;-52
2021/11/22 00:21:36;;;;;;;21.75;13.02;;;7.10;99.90;;;;;;5013250;28;20036;-56
2021/11/22 00:24:02;;;;;;;22.38;13.95;;;7.10;99.90;;;;;;5012281;28;20480;-56
2021/11/22 00:26:27;;;;;;;22.65;14.40;;;7.10;99.90;;;;;;5012633;28;20026;-53
2021/11/22 00:28:53;;;;;;;25.02;13.93;;;7.10;99.90;;;;;;5011993;28;20506;-56
2021/11/22 00:31:19;;;;;;;26.67;14.10;;;7.00;99.90;;;;;;5011684;28;20062;-52
2021/11/22 00:33:45;;;;;;;18.75;13.10;;;6.90;99.90;;;;;;5012177;28;20460;-56
2021/11/22 00:36:11;;;;;;;24.83;13.50;;;6.90;99.90;;;;;;5011994;28;20072;-56
2021/11/22 00:38:37;;;;;;;24.00;14.30;;;6.90;99.90;;;;;;5012021;28;20045;-52
2021/11/22 00:41:03;;;;;;;23.92;15.23;;;6.90;99.90;;;;;;5012167;28;20018;-49
2021/11/22 00:43:29;;;;;;;28.45;15.80;;;6.80;99.90;;;;;;5012196;28;20104;-56
2021/11/22 00:45:54;;;;;;;26.42;14.27;;;6.70;99.90;;;;;;5011868;28;20053;-56
2021/11/22 00:48:21;;;;;;;28.13;16.00;;;6.70;99.90;;;;;;5011961;28;20026;-51
2021/11/22 00:50:51;;;;;;;29.45;15.02;;;6.70;99.90;;;;;;5011602;28;20049;-52
2021/11/22 00:53:17;;;;;;;31.58;15.95;;;6.60;99.90;;;;;;5011715;28;20026;-54
2021/11/22 00:55:42;;;;;;;27.45;15.55;;;6.60;99.90;;;;;;5010970;28;20038;-54
2021/11/22 00:58:08;;;;;;;29.65;14.55;;;6.60;99.90;;;;;;5011673;28;20105;-54
2021/11/22 01:00:34;;;;;;;32.63;15.75;;;6.50;99.90;;;;;;5011434;28;20022;-55
2021/11/22 01:03:00;;;;;;;24.50;16.05;;;6.60;99.90;;;;;;5011716;28;20434;-52
2021/11/22 01:05:26;;;;;;;22.67;15.05;;;6.60;99.90;;;;;;5011849;28;20026;-53
2021/11/22 01:07:52;;;;;;;21.58;14.70;;;6.60;99.90;;;;;;5011703;28;20030;-57
2021/11/22 01:10:18;;;;;;;25.33;14.70;;;6.60;99.90;;;;;;5010177;28;20045;-54
2021/11/22 01:12:45;;;;;;;25.92;14.98;;;6.60;99.90;;;;;;5011554;28;20133;-55
2021/11/22 01:15:14;;;;;;;27.05;16.42;;;6.60;99.90;;;;;;5013462;28;20066;-52
2021/11/22 01:17:41;;;;;;;30.20;15.00;;;6.60;99.90;;;;;;5015583;28;20022;-52
2021/11/22 01:20:09;;;;;;;32.35;15.18;;;6.70;99.90;;;;;;5015237;28;20022;-56
2021/11/22 01:22:37;;;;;;;20.23;13.68;;;6.80;99.90;;;;;;5015343;28;20033;-53
2021/11/22 01:25:03;;;;;;;28.20;14.98;;;6.80;99.90;;;;;;5015218;28;20081;-50
2021/11/22 01:27:29;;;;;;;24.25;15.43;;;6.80;99.90;;;;;;5015381;28;20026;-53
2021/11/22 01:29:55;;;;;;;26.83;15.13;;;6.90;99.90;;;;;;5014917;28;20025;-53
2021/11/22 01:32:20;;;;;;;21.92;14.38;;;7.00;99.90;;;;;;5015140;28;20072;-53
2021/11/22 01:34:46;;;;;;;24.05;14.75;;;7.00;99.90;;;;;;5015546;28;20204;-52
2021/11/22 01:37:11;;;;;;;25.33;14.75;;;6.90;99.90;;;;;;5015018;28;20044;-50
2021/11/22 01:39:37;;;;;;;23.75;15.73;;;7.00;99.90;;;;;;5014786;28;20024;-52
2021/11/22 01:42:03;;;;;;;22.63;13.88;;;7.00;99.90;;;;;;5014807;28;20549;-52
2021/11/22 01:44:29;;;;;;;21.15;13.32;;;7.00;99.90;;;;;;5014966;28;20060;-53
2021/11/22 01:46:55;;;;;;;23.75;13.55;;;7.00;99.90;;;;;;5015083;28;20068;-53
2021/11/22 01:49:21;;;;;;;20.73;13.68;;;7.00;99.90;;;;;;5014796;28;20069;-51
2021/11/22 01:51:47;;;;;;;23.30;14.48;;;7.00;99.90;;;;;;5014695;28;20076;-55
2021/11/22 01:54:13;;;;;;;21.58;13.93;;;7.10;99.90;;;;;;5014234;28;20030;-52
2021/11/22 01:56:39;;;;;;;20.90;13.48;;;7.10;99.90;;;;;;5013217;28;20041;-54
2021/11/22 01:59:05;;;;;;;24.45;13.63;;;7.10;99.90;;;;;;5014336;28;20024;-52
2021/11/22 02:01:31;;;;;;;25.13;14.95;;;7.10;99.90;;;;;;5014490;28;20021;-50
2021/11/22 02:03:56;;;;;;;25.50;13.90;;;7.10;99.90;;;;;;5014560;28;20021;-55
2021/11/22 02:06:22;;;;;;;21.13;13.95;;;7.10;99.90;;;;;;5014467;28;20376;-54
2021/11/22 02:08:48;;;;;;;24.90;13.32;;;7.10;99.90;;;;;;5014653;28;20022;-55
2021/11/22 02:11:14;;;;;;;19.95;13.55;;;7.10;99.90;;;;;;5014614;28;20124;-54
2021/11/22 02:13:41;;;;;;;17.95;12.93;;;7.10;99.90;;;;;;5014797;28;20548;-51
2021/11/22 02:16:07;;;;;;;22.83;13.25;;;7.10;99.90;;;;;;5014515;28;20088;-54
2021/11/22 02:18:33;;;;;;;24.02;13.15;;;7.20;99.90;;;;;;5014200;28;20018;-54
2021/11/22 02:20:59;;;;;;;23.63;13.38;;;7.20;99.90;;;;;;5013901;28;20498;-51
2021/11/22 02:23:25;;;;;;;23.17;13.65;;;7.20;99.90;;;;;;5014149;28;20357;-52
2021/11/22 02:25:51;;;;;;;21.35;12.65;;;7.20;99.90;;;;;;5013330;28;20038;-52
2021/11/22 02:28:17;;;;;;;24.80;13.27;;;7.20;99.90;;;;;;5013622;28;20026;-52
2021/11/22 02:30:46;;;;;;;20.67;12.90;;;7.20;99.90;;;;;;5013827;28;20595;-56
2021/11/22 02:33:16;;;;;;;24.83;14.63;;;7.20;99.90;;;;;;5013959;28;20029;-55
2021/11/22 02:35:49;;;;;;;17.42;10.68;;;7.10;99.90;;;;;;5014011;28;20121;-53
2021/11/22 02:38:19;;;;;;;15.50;10.35;;;7.00;99.90;;;;;;5014012;28;20040;-56
2021/11/22 02:40:46;;;;;;;15.95;9.80;;;6.90;99.90;;;;;;5013585;28;20041;-56
2021/11/22 02:43:12;;;;;;;20.98;9.38;;;6.80;99.90;;;;;;5013621;28;20388;-55
2021/11/22 02:45:37;;;;;;;12.90;8.48;;;6.80;99.90;;;;;;5013736;28;20097;-54
2021/11/22 02:48:03;;;;;;;17.90;8.98;;;6.80;99.90;;;;;;5013620;28;20403;-55
2021/11/22 02:50:29;;;;;;;18.45;9.30;;;6.70;99.90;;;;;;5013331;28;20030;-52
2021/11/22 02:52:56;;;;;;;16.60;7.70;;;6.70;99.90;;;;;;5013502;28;20080;-51
2021/11/22 02:55:22;;;;;;;14.52;7.05;;;6.70;99.90;;;;;;5012875;28;20048;-52
2021/11/22 02:57:48;;;;;;;16.42;6.90;;;6.70;99.90;;;;;;5013673;28;20097;-54
2021/11/22 03:00:19;;;;;;;19.35;5.93;;;6.70;99.90;;;;;;5013235;28;20097;-51
2021/11/22 03:02:44;;;;;;;7.95;5.50;;;6.70;99.90;;;;;;5013592;28;20072;-52
2021/11/22 03:05:11;;;;;;;18.02;5.30;;;6.70;99.90;;;;;;5013411;28;20495;-53
2021/11/22 03:07:37;;;;;;;9.18;5.97;;;6.70;99.90;;;;;;5013356;28;20033;-51
2021/11/22 03:10:05;;;;;;;10.77;4.82;;;6.70;99.90;;;;;;5013076;28;20435;-50
2021/11/22 03:12:31;;;;;;;11.02;5.30;;;6.70;99.90;;;;;;5013140;28;20053;-51
2021/11/22 03:14:57;;;;;;;14.10;4.70;;;6.70;99.90;;;;;;5013200;28;20049;-53
2021/11/22 03:17:23;;;;;;;14.93;4.60;;;6.70;99.90;;;;;;5013567;28;20030;-55
2021/11/22 03:19:48;;;;;;;11.50;4.40;;;6.70;99.90;;;;;;5012833;28;20018;-52
2021/11/22 03:22:14;;;;;;;18.27;4.47;;;6.70;99.90;;;;;;5012938;28;20026;-55
2021/11/22 03:24:39;;;;;;;13.07;3.97;;;6.70;99.90;;;;;;5013171;28;20025;-52
2021/11/22 03:27:05;;;;;;;9.52;3.97;;;6.70;99.90;;;;;;5012883;28;20037;-54
2021/11/22 03:29:31;;;;;;;11.52;3.63;;;6.60;99.90;;;;;;5012674;28;20033;-52
2021/11/22 03:31:58;;;;;;;7.75;3.75;;;6.60;99.90;;;;;;5012932;28;20056;-50
2021/11/22 03:34:24;;;;;;;7.50;3.20;;;6.60;99.90;;;;;;5013088;28;20045;-53
2021/11/22 03:36:50;;;;;;;8.57;3.63;;;6.60;99.90;;;;;;5012798;28;20034;-51
2021/11/22 03:39:22;;;;;;;15.75;5.25;;;6.60;99.90;;;;;;5012558;28;20018;-55
2021/11/22 03:41:48;;;;;;;10.15;3.45;;;6.50;99.90;;;;;;5012568;28;20044;-51
2021/11/22 03:44:15;;;;;;;14.10;4.70;;;6.60;99.90;;;;;;5012974;28;20506;-54
2021/11/22 03:46:45;;;;;;;14.25;4.60;;;6.50;99.90;;;;;;5011474;28;20033;-51
2021/11/22 03:49:11;;;;;;;11.88;3.55;;;6.50;99.90;;;;;;5012358;28;20038;-53
2021/11/22 03:51:37;;;;;;;19.05;3.95;;;6.50;99.90;;;;;;5012849;28;20108;-55
2021/11/22 03:54:03;;;;;;;8.07;3.35;;;6.50;99.90;;;;;;5011854;28;20034;-54
2021/11/22 03:56:28;;;;;;;11.98;3.30;;;6.50;99.90;;;;;;5012444;28;20029;-55
2021/11/22 03:58:54;;;;;;;8.60;3.03;;;6.50;99.90;;;;;;5011159;28;20023;-52
2021/11/22 04:01:19;;;;;;;10.65;3.65;;;6.60;99.90;;;;;;5012152;28;20475;-51
2021/11/22 04:03:45;;;;;;;8.23;2.90;;;6.70;99.90;;;;;;5012498;28;20022;-50
2021/11/22 04:06:12;;;;;;;6.55;2.80;;;6.60;99.90;;;;;;5012311;28;20033;-51
2021/11/22 04:08:38;;;;;;;12.70;3.63;;;6.60;99.90;;;;;;5012273;28;20096;-53
2021/11/22 04:11:03;;;;;;;16.00;3.58;;;6.60;99.90;;;;;;5011851;28;20479;-51
2021/11/22 04:13:29;;;;;;;8.80;3.28;;;6.50;99.90;;;;;;5012352;28;20033;-54
2021/11/22 04:15:55;;;;;;;9.32;2.50;;;6.60;99.90;;;;;;5012099;28;20034;-53
2021/11/22 04:18:20;;;;;;;13.57;4.25;;;6.60;99.90;;;;;;5012245;28;20395;-53
2021/11/22 04:20:46;;;;;;;19.60;3.97;;;6.60;99.90;;;;;;5010501;28;20519;-54
2021/11/22 04:23:12;;;;;;;9.52;3.10;;;6.60;99.90;;;;;;5012089;28;20022;-52
2021/11/22 04:25:38;;;;;;;17.80;4.85;;;6.70;99.90;;;;;;5011981;28;20026;-51
2021/11/22 04:28:05;;;;;;;8.30;3.53;;;6.70;99.90;;;;;;5012078;28;20017;-53
2021/11/22 04:30:32;;;;;;;12.77;3.88;;;6.80;99.90;;;;;;5011744;28;20029;-51
2021/11/22 04:32:59;;;;;;;8.48;3.63;;;6.80;99.90;;;;;;5012026;28;20140;-50
2021/11/22 04:35:25;;;;;;;12.23;3.53;;;6.70;99.90;;;;;;5011840;28;20033;-51
2021/11/22 04:37:51;;;;;;;15.88;3.63;;;6.70;99.90;;;;;;5011736;28;20038;-54
2021/11/22 04:40:18;;;;;;;8.88;3.28;;;6.70;99.90;;;;;;5011549;28;20018;-51
2021/11/22 04:42:47;;;;;;;11.75;3.45;;;6.60;99.90;;;;;;5011709;28;20030;-50
2021/11/22 04:45:18;;;;;;;13.60;3.53;;;6.60;99.90;;;;;;5011797;28;20402;-54
2021/11/22 04:47:44;;;;;;;16.75;4.43;;;6.60;99.90;;;;;;5011888;28;20104;-54
2021/11/22 04:50:10;;;;;;;9.73;4.90;;;6.70;99.90;;;;;;5013525;28;20468;-53
2021/11/22 04:52:36;;;;;;;8.57;3.80;;;6.70;99.90;;;;;;5015695;28;20072;-51
2021/11/22 04:55:03;;;;;;;10.85;4.07;;;6.70;99.90;;;;;;5015321;28;20472;-52
2021/11/22 04:57:28;;;;;;;10.27;3.70;;;6.60;99.90;;;;;;5015747;28;20026;-51
2021/11/22 04:59:54;;;;;;;12.85;4.50;;;6.60;99.90;;;;;;5015366;28;20018;-53
2021/11/22 05:02:19;;;;;;;11.52;4.10;;;6.60;99.90;;;;;;5015690;28;20403;-50
2021/11/22 05:04:45;;;;;;;18.38;4.30;;;6.60;99.90;;;;;;5015782;28;20029;-51
2021/11/22 05:07:11;;;;;;;20.80;4.43;;;6.60;99.90;;;;;;5015645;28;20033;-50
2021/11/22 05:09:36;;;;;;;11.82;3.60;;;6.70;99.90;;;;;;5015307;28;20033;-53
2021/11/22 05:12:02;;;;;;;10.50;4.30;;;6.70;99.90;;;;;;5015461;28;20491;-53
2021/11/22 05:14:28;;;;;;;12.35;4.47;;;6.50;99.90;;;;;;5015356;28;20061;-50
2021/11/22 05:16:53;;;;;;;10.50;4.05;;;6.50;99.90;;;;;;5015410;28;20394;-53
2021/11/22 05:19:20;;;;;;;13.18;3.80;;;6.50;99.90;;;;;;5015001;28;20022;-54
2021/11/22 05:21:46;;;;;;;15.57;4.57;;;6.50;99.90;;;;;;5015408;28;20101;-50
2021/11/22 05:24:12;;;;;;;11.13;4.78;;;6.60;99.90;;;;;;5015299;28;20513;-54
2021/11/22 05:26:38;;;;;;;14.98;4.82;;;6.60;99.90;;;;;;5015357;28;20034;-52
2021/11/22 05:29:06;;;;;;;14.68;3.85;;;6.70;99.90;;;;;;5015059;28;20450;-48
2021/11/22 05:31:33;;;;;;;14.45;4.85;;;6.60;99.90;;;;;;5015317;28;20037;-51
2021/11/22 05:33:59;;;;;;;13.85;4.30;;;6.60;99.90;;;;;;5015108;28;20026;-53
2021/11/22 05:36:25;;;;;;;12.50;5.18;;;6.60;99.90;;;;;;5014990;28;20022;-53
2021/11/22 05:38:50;;;;;;;12.38;3.92;;;6.50;99.90;;;;;;5014879;28;20529;-56
2021/11/22 05:41:16;;;;;;;10.15;3.70;;;6.60;99.90;;;;;;5014422;28;20399;-56
2021/11/22 05:43:41;;;;;;;14.02;4.38;;;6.50;99.90;;;;;;5014339;28;20030;-54
2021/11/22 05:46:10;;;;;;;17.27;4.45;;;6.50;99.90;;;;;;5015423;28;20651;-52
2021/11/22 05:48:35;;;;;;;12.93;4.82;;;6.40;99.90;;;;;;5014989;28;20032;-52
2021/11/22 05:51:05;;;;;;;9.68;3.50;;;6.40;99.90;;;;;;5014886;28;20414;-51
2021/11/22 05:53:35;;;;;;;12.93;4.35;;;6.40;99.90;;;;;;5014567;28;20056;-53
2021/11/22 05:56:03;;;;;;;13.63;5.05;;;6.40;99.90;;;;;;5013995;28;20410;-53
2021/11/22 05:58:31;;;;;;;14.60;4.45;;;6.30;99.90;;;;;;5014688;28;20026;-52
2021/11/22 06:01:01;;;;;;;13.40;3.90;;;6.30;99.90;;;;;;5013977;28;20404;-52
2021/11/22 06:03:28;;;;;;;16.40;4.25;;;6.30;99.90;;;;;;5014416;28;20130;-53
2021/11/22 06:05:54;;;;;;;11.95;4.30;;;6.30;99.90;;;;;;5014476;28;20030;-47
2021/11/22 06:08:19;;;;;;;13.00;5.25;;;6.20;99.90;;;;;;5013013;28;20068;-50
2021/11/22 06:10:46;;;;;;;9.77;4.00;;;6.30;99.90;;;;;;5014138;28;20026;-54
2021/11/22 06:13:12;;;;;;;12.82;5.05;;;6.30;99.90;;;;;;5014235;28;20388;-56
2021/11/22 06:15:39;;;;;;;17.33;4.30;;;6.30;99.90;;;;;;5014258;28;20026;-53
2021/11/22 06:18:05;;;;;;;18.50;4.28;;;6.20;99.90;;;;;;5014427;28;20025;-52
2021/11/22 06:23:02;;;;;;;12.88;4.10;;;6.20;99.90;;;;;;5052790;23;20049;-51
2021/11/22 06:25:28;;;;;;;16.95;4.95;;;6.20;99.90;;;;;;5033126;28;20032;-46
2021/11/22 06:27:53;;;;;;;9.77;5.18;;;6.20;99.90;;;;;;5033298;28;20082;-43
2021/11/22 06:30:19;;;;;;;11.75;4.38;;;6.10;99.90;;;;;;5034076;28;20029;-46
2021/11/22 06:32:46;;;;;;;16.30;5.25;;;6.10;99.90;;;;;;5034344;28;20022;-44
2021/11/22 06:35:12;;;;;;;9.82;4.40;;;6.10;99.90;;;;;;5034146;28;20043;-46
2021/11/22 06:37:37;;;;;;;17.08;5.50;;;6.10;99.90;;;;;;5034418;28;20029;-51
2021/11/22 06:40:06;;;;;;;13.45;4.72;;;6.10;99.90;;;;;;5033990;28;20026;-48
2021/11/22 06:42:32;;;;;;;10.23;4.75;;;6.10;99.90;;;;;;5032657;28;20049;-46
2021/11/22 06:44:58;;;;;;;9.57;4.60;;;6.10;99.90;;;;;;5034530;28;20391;-48
2021/11/22 06:47:24;;;;;;;9.35;5.70;;;6.10;99.90;;;;;;5033977;28;20032;-50
2021/11/22 06:49:51;;;;;;;15.55;5.30;;;6.10;99.90;;;;;;5033445;28;20466;-49
2021/11/22 06:52:18;;;;;;;11.88;4.90;;;6.00;99.90;;;;;;5033245;28;20030;-49
2021/11/22 06:54:44;;;;;;;22.00;6.10;;;6.10;99.90;;;;;;5032036;28;20022;-47
2021/11/22 06:57:10;;;;;;;15.15;5.57;;;6.10;99.90;;;;;;5033315;28;20026;-53
2021/11/22 06:59:36;;;;;;;18.40;6.90;;;6.10;99.90;;;;;;5032000;28;20053;-46
2021/11/22 07:02:02;;;;;;;13.32;5.50;;;6.10;99.90;;;;;;5033202;28;20021;-51
2021/11/22 07:04:27;;;;;;;13.40;5.15;;;6.20;99.90;;;;;;5033744;28;20616;-45
2021/11/22 07:06:53;;;;;;;11.82;5.22;;;6.10;99.90;;;;;;5033512;28;20105;-45
2021/11/22 07:09:19;;;;;;;14.05;6.93;;;6.10;99.90;;;;;;5033622;28;20109;-48
2021/11/22 07:11:46;;;;;;;12.55;5.80;;;6.10;99.90;;;;;;5033313;28;20036;-47
2021/11/22 07:14:12;;;;;;;13.77;6.32;;;6.10;99.90;;;;;;5032647;28;20068;-47
2021/11/22 07:16:38;;;;;;;9.10;5.57;;;6.10;99.90;;;;;;5032996;28;20463;-50
2021/11/22 07:19:04;;;;;;;19.40;7.47;;;6.20;99.90;;;;;;5032838;28;20025;-47
2021/11/22 07:21:30;;;;;;;11.48;5.75;;;6.20;99.90;;;;;;5032615;28;20040;-45
2021/11/22 07:23:57;;;;;;;17.70;6.10;;;6.20;99.90;;;;;;5033136;28;20543;-49
2021/11/22 07:26:23;;;;;;;13.05;5.85;;;6.20;99.90;;;;;;5032981;28;20048;-46
2021/11/22 07:28:48;;;;;;;16.00;5.90;;;6.10;99.90;;;;;;5032755;28;20110;-46
2021/11/22 07:31:14;;;;;;;11.18;5.55;;;6.10;99.90;;;;;;5032440;28;20100;-50
2021/11/22 07:33:40;;;;;;;13.88;5.57;;;6.10;99.90;;;;;;5032944;28;20083;-51
2021/11/22 07:36:05;;;;;;;16.08;5.38;;;6.10;99.90;;;;;;5031372;28;20036;-46
2021/11/22 07:38:31;;;;;;;8.63;6.03;;;6.10;99.90;;;;;;5032994;28;20484;-48
2021/11/22 07:40:56;;;;;;;12.13;5.32;;;6.10;99.90;;;;;;5032322;28;20503;-47
2021/11/22 07:43:22;;;;;;;9.38;4.90;;;6.10;99.90;;;;;;5032587;28;20056;-47
2021/11/22 07:45:48;;;;;;;6.47;4.80;;;6.10;99.90;;;;;;5032401;28;20056;-54
2021/11/22 07:48:14;;;;;;;6.88;4.53;;;6.20;99.90;;;;;;5032404;28;20030;-47
2021/11/22 07:50:41;;;;;;;11.25;5.32;;;6.20;99.90;;;;;;5032101;28;20422;-48
2021/11/22 07:53:07;;;;;;;11.75;5.55;;;6.10;99.90;;;;;;5032453;28;20039;-51
2021/11/22 07:55:32;;;;;;;9.35;5.32;;;6.20;99.90;;;;;;5032373;28;20113;-48
2021/11/22 07:57:58;;;;;;;12.27;6.07;;;6.10;99.90;;;;;;5031458;28;20033;-47
2021/11/22 08:00:26;;;;;;;9.48;5.28;;;6.10;99.90;;;;;;5032269;28;20025;-43
2021/11/22 08:02:52;;;;;;;12.82;6.15;;;6.10;99.90;;;;;;5032387;28;20022;-49
2021/11/22 08:05:19;;;;;;;13.10;6.05;;;6.20;99.90;;;;;;5032344;28;20029;-47
2021/11/22 08:07:45;;;;;;;8.98;5.22;;;6.10;99.90;;;;;;5032596;28;20368;-50
2021/11/22 08:12:52;;;;;;;10.57;5.55;;;6.20;99.90;;;;;;5032097;28;20483;-50
2021/11/22 08:15:19;;;;;;;12.80;6.35;;;6.10;99.90;;;;;;5032159;28;20070;-51
2021/11/22 08:17:46;;;;;;;13.55;5.95;;;6.20;99.90;;;;;;5032364;28;20026;-44
2021/11/22 08:20:15;;;;;;;13.10;5.55;;;6.20;99.90;;;;;;5031825;28;20063;-51
2021/11/22 08:22:40;;;;;;;11.63;5.45;;;6.20;99.90;;;;;;5032007;28;20034;-51
2021/11/22 08:25:08;;;;;;;10.80;5.75;;;6.20;99.90;;;;;;5032106;28;20688;-45
2021/11/22 08:27:34;;;;;;;8.18;5.13;;;6.30;99.90;;;;;;5032231;28;20044;-48
2021/11/22 08:30:04;;;;;;;11.02;5.60;;;6.30;99.90;;;;;;5030484;28;20026;-46
2021/11/22 08:32:30;;;;;;;12.55;5.97;;;6.30;99.90;;;;;;5031921;28;20092;-47
2021/11/22 08:34:56;;;;;;;9.15;5.47;;;6.30;99.90;;;;;;5031813;28;20025;-42
2021/11/22 08:37:23;;;;;;;7.07;4.95;;;6.40;99.90;;;;;;5031913;28;20116;-51
2021/11/22 08:39:48;;;;;;;8.38;5.20;;;6.40;99.90;;;;;;5030462;28;20018;-44
2021/11/22 08:42:14;;;;;;;6.90;4.43;;;6.50;99.90;;;;;;5031188;28;20021;-49
2021/11/22 08:44:40;;;;;;;8.65;4.30;;;6.70;99.90;;;;;;5023221;28;20044;-51
2021/11/22 08:47:06;;;;;;;4.63;3.70;;;7.40;99.90;;;;;;5012469;28;20026;-47
2021/11/22 08:49:32;;;;;;;6.30;3.92;;;8.00;99.90;;;;;;5020016;28;20041;-54
2021/11/22 08:51:59;;;;;;;9.18;4.93;;;8.50;99.90;;;;;;5021115;28;20026;-50
2021/11/22 08:54:25;;;;;;;4.07;3.25;;;8.80;99.90;;;;;;5026004;28;20221;-53
2021/11/22 08:56:50;;;;;;;6.90;3.35;;;9.20;99.90;;;;;;5015448;28;20104;-52
2021/11/22 08:59:16;;;;;;;7.45;3.60;;;9.00;99.90;;;;;;5011829;28;20104;-47
2021/11/22 09:01:43;;;;;;;5.30;3.10;;;9.30;99.90;;;;;;5015658;28;20029;-49
2021/11/22 09:04:08;;;;;;;4.10;3.25;;;9.60;99.90;;;;;;5031848;28;20085;-47
2021/11/22 09:06:34;;;;;;;4.63;3.38;;;9.60;99.90;;;;;;5020868;28;20439;-49
2021/11/22 09:09:05;;;;;;;4.20;3.03;;;9.60;99.90;;;;;;5011922;28;20491;-48
2021/11/22 09:11:30;;;;;;;3.50;3.20;;;9.70;99.90;;;;;;5019310;28;20033;-56
2021/11/22 09:13:56;;;;;;;4.57;3.25;;;9.50;99.90;;;;;;5024344;28;20392;-47
2021/11/22 09:16:27;;;;;;;7.28;3.28;;;9.60;99.90;;;;;;5029923;28;20029;-49
2021/11/22 09:18:56;;;;;;;3.53;2.80;;;9.80;99.90;;;;;;5015102;28;20026;-49
2021/11/22 09:21:23;;;;;;;5.72;3.30;;;9.90;99.90;;;;;;5009980;28;20030;-54
2021/11/22 09:23:49;;;;;;;5.22;4.15;;;10.20;99.90;;;;;;5010228;28;20562;-47
2021/11/22 09:26:15;;;;;;;4.03;2.28;;;10.00;99.90;;;;;;5010158;28;20030;-47
2021/11/22 09:28:42;;;;;;;6.90;3.38;;;10.10;99.90;;;;;;5008126;28;20346;-48
2021/11/22 09:31:08;;;;;;;6.85;3.17;;;9.70;99.90;;;;;;5009837;28;20038;-52
2021/11/22 09:33:34;;;;;;;4.70;2.85;;;9.60;99.90;;;;;;5010853;28;20558;-49
2021/11/22 09:35:59;;;;;;;3.65;2.85;;;10.20;99.90;;;;;;5012689;28;20041;-49
2021/11/22 09:38:26;;;;;;;3.63;2.17;;;10.50;99.90;;;;;;5015698;28;20021;-49
2021/11/22 09:40:53;;;;;;;2.75;2.20;;;10.50;99.90;;;;;;5015213;28;20018;-48
2021/11/22 09:43:19;;;;;;;2.90;2.38;;;10.10;99.90;;;;;;5015698;28;20173;-50
2021/11/22 09:45:46;;;;;;;6.20;2.90;;;10.30;99.90;;;;;;5015831;28;20531;-45
2021/11/22 09:48:12;;;;;;;2.53;2.33;;;10.50;99.90;;;;;;5015768;28;20460;-47
2021/11/22 09:50:38;;;;;;;6.18;2.50;;;10.70;99.90;;;;;;5013658;28;20444;-49
2021/11/22 09:53:04;;;;;;;3.70;2.33;;;10.70;99.90;;;;;;5013704;28;20022;-53
2021/11/22 09:55:31;;;;;;;3.63;2.50;;;10.80;99.90;;;;;;5014778;28;20483;-50
2021/11/22 09:58:02;;;;;;;2.05;1.95;;;10.30;99.90;;;;;;5014868;28;20026;-46
2021/11/22 10:00:41;;;;;;;3.72;2.03;;;10.20;99.90;;;;;;5014308;28;20563;-49
2021/11/22 10:03:15;;;;;;;2.83;2.33;;;10.10;99.90;;;;;;5014871;28;20388;-47
2021/11/22 10:05:42;;;;;;;4.57;2.50;;;10.20;99.90;;;;;;5014929;28;20036;-50
2021/11/22 10:08:10;;;;;;;2.38;2.28;;;10.00;99.90;;;;;;5014829;28;20026;-50
2021/11/22 10:10:57;;;;;;;3.60;2.25;;;10.00;99.90;;;;;;5014352;28;20022;-48
2021/11/22 10:13:36;;;;;;;2.08;1.85;;;10.50;99.90;;;;;;5014579;28;20403;-49
2021/11/22 10:16:07;;;;;;;2.88;2.25;;;10.60;99.90;;;;;;5014774;28;20471;-47
2021/11/22 10:18:40;;;;;;;3.85;1.85;;;10.40;99.90;;;;;;5012963;28;20030;-49
2021/11/22 10:21:08;;;;;;;2.55;2.15;;;10.50;99.90;;;;;;5012755;28;20033;-49
2021/11/22 10:23:36;;;;;;;1.92;1.73;;;10.40;99.90;;;;;;5014879;28;20109;-47
2021/11/22 10:26:02;;;;;;;7.00;2.28;;;9.90;99.90;;;;;;5013005;28;20121;-47
2021/11/22 10:28:30;;;;;;;3.67;2.03;;;9.90;99.90;;;;;;5012836;28;20554;-44
2021/11/22 10:30:56;;;;;;;4.25;1.95;;;9.70;99.90;;;;;;5013869;28;20026;-49
2021/11/22 10:33:25;;;;;;;1.65;1.60;;;9.60;99.00;;;;;;5014217;28;20030;-49
2021/11/22 10:35:54;;;;;;;2.22;2.08;;;9.50;99.60;;;;;;5014245;28;20045;-43
2021/11/22 10:38:32;;;;;;;2.70;1.85;;;9.20;99.90;;;;;;5014363;28;20033;-50
2021/11/22 10:41:03;;;;;;;2.80;1.75;;;9.10;99.90;;;;;;5013311;28;20020;-49
2021/11/22 10:43:42;;;;;;;5.45;2.20;;;8.80;99.90;;;;;;5014142;28;20018;-51
2021/11/22 10:46:09;;;;;;;2.20;2.00;;;8.90;99.90;;;;;;5016570;28;20033;-47
2021/11/22 10:48:36;;;;;;;2.60;2.25;;;8.70;99.90;;;;;;5027448;28;20030;-50
2021/11/22 10:51:04;;;;;;;4.13;2.35;;;9.10;99.90;;;;;;5031354;28;20376;-51
2021/11/22 10:53:33;;;;;;;2.78;1.92;;;9.10;99.90;;;;;;5032873;28;20026;-49
2021/11/22 10:56:00;;;;;;;2.53;2.33;;;9.30;99.90;;;;;;5032973;28;20459;-55
2021/11/22 10:58:57;;;;;;;2.20;1.98;;;8.90;99.90;;;;;;5014572;28;20053;-50
2021/11/22 11:01:41;;;;;;;2.20;2.10;;;8.50;99.90;;;;;;5013728;28;20033;-51
2021/11/22 11:04:08;;;;;;;2.22;2.08;;;8.50;99.90;;;;;;5034211;28;20037;-55
2021/11/22 11:06:40;;;;;;;5.68;2.22;;;8.30;99.90;;;;;;5027713;28;20521;-58
2021/11/22 11:09:08;;;;;;;4.45;2.17;;;8.10;99.90;;;;;;5022853;28;20054;-60
2021/11/22 11:11:34;;;;;;;3.75;2.75;;;8.10;99.90;;;;;;5028106;28;20100;-56
2021/11/22 11:14:09;;;;;;;10.95;2.75;;;8.10;99.90;;;;;;5031845;28;20030;-54
2021/11/22 11:16:36;;;;;;;3.38;2.17;;;8.00;99.90;;;;;;5013439;28;20470;-52
2021/11/22 11:19:08;;;;;;;2.60;2.15;;;8.10;99.90;;;;;;5013434;28;20021;-56
2021/11/22 11:21:37;;;;;;;3.53;2.20;;;8.10;99.90;;;;;;5013435;28;20041;-56
2021/11/22 11:24:05;;;;;;;1.98;1.88;;;8.20;99.90;;;;;;5013857;28;20046;-52
2021/11/22 11:26:31;;;;;;;2.28;1.90;;;8.10;99.90;;;;;;5012183;28;20112;-56
2021/11/22 11:28:57;;;;;;;2.33;2.08;;;8.10;99.90;;;;;;5024449;28;20137;-55
2021/11/22 11:31:24;;;;;;;2.20;1.95;;;8.10;99.90;;;;;;5016395;28;20096;-51
2021/11/22 11:33:52;;;;;;;2.53;2.33;;;8.10;99.90;;;;;;5017048;28;20414;-54
2021/11/22 11:36:56;;;;;;;1.67;1.58;;;8.10;99.90;;;;;;5021660;28;20065;-51
2021/11/22 11:39:54;;;;;;;2.38;2.05;;;8.10;99.90;;;;;;5022728;28;20030;-55
2021/11/22 11:42:48;;;;;;;2.17;1.98;;;8.10;99.90;;;;;;5028346;28;20033;-59
2021/11/22 11:45:45;;;;;;;3.38;1.90;;;8.00;99.90;;;;;;5020233;28;20037;-49
2021/11/22 11:48:16;;;;;;;2.30;2.10;;;8.00;99.90;;;;;;5029081;28;20045;-59
2021/11/22 11:50:45;;;;;;;2.55;1.58;;;8.00;99.90;;;;;;5023234;28;20422;-55
2021/11/22 11:53:16;;;;;;;2.10;1.90;;;8.10;99.90;;;;;;5017922;28;20026;-55
2021/11/22 11:55:44;;;;;;;8.32;1.92;;;8.20;99.90;;;;;;5032905;28;20438;-56
2021/11/22 11:58:20;;;;;;;2.75;1.50;;;8.10;99.90;;;;;;5024403;28;20022;-50
2021/11/22 12:00:59;;;;;;;1.88;1.52;;;8.20;99.90;;;;;;5013225;28;20049;-54
2021/11/22 12:03:30;;;;;;;2.10;1.70;;;8.30;99.90;;;;;;5012477;28;20026;-52
2021/11/22 12:05:58;;;;;;;2.83;2.30;;;8.30;99.90;;;;;;5013264;28;20021;-52
2021/11/22 12:08:32;;;;;;;1.63;1.52;;;8.20;99.90;;;;;;5012271;28;20018;-52
2021/11/22 12:11:02;;;;;;;2.90;1.60;;;8.30;99.90;;;;;;5011836;28;20033;-51
2021/11/22 12:13:48;;;;;;;1.73;1.63;;;8.30;99.90;;;;;;5010978;28;20030;-49
2021/11/22 12:16:49;;;;;;;1.40;1.30;;;8.20;99.90;;;;;;5011985;28;20116;-52
2021/11/22 12:19:39;;;;;;;1.58;1.48;;;8.00;99.90;;;;;;4973463;28;20483;-55
2021/11/22 12:22:11;;;;;;;2.95;2.22;;;8.00;99.90;;;;;;5010621;28;20466;-55
2021/11/22 12:24:39;;;;;;;1.60;1.45;;;8.20;99.90;;;;;;5011782;28;20022;-55
2021/11/22 12:27:27;;;;;;;5.63;1.52;;;8.10;99.90;;;;;;5011914;28;20045;-53
2021/11/22 12:29:58;;;;;;;1.40;1.30;;;8.00;99.90;;;;;;5008241;28;20042;-57
2021/11/22 12:32:34;;;;;;;3.72;1.50;;;8.00;99.90;;;;;;5017629;28;20028;-58
2021/11/22 12:35:03;;;;;;;3.88;1.50;;;8.10;99.90;;;;;;5029451;28;20314;-57
2021/11/22 12:37:31;;;;;;;1.58;1.48;;;8.10;99.90;;;;;;5030221;28;20087;-56
2021/11/22 12:40:27;;;;;;;1.88;1.42;;;8.20;99.90;;;;;;5030891;28;20029;-51
2021/11/22 12:42:57;;;;;;;3.78;1.80;;;8.10;99.90;;;;;;5027051;28;20437;-51
2021/11/22 12:45:23;;;;;;;3.42;1.40;;;8.00;99.90;;;;;;5031764;28;20057;-55
2021/11/22 12:47:49;;;;;;;1.70;1.60;;;8.00;99.90;;;;;;5031793;28;20060;-56
2021/11/22 12:50:20;;;;;;;2.03;1.80;;;8.10;99.90;;;;;;5024320;28;20022;-55
2021/11/22 12:53:09;;;;;;;1.23;1.23;;;8.00;99.90;;;;;;5010944;28;20029;-59
2021/11/22 12:55:38;;;;;;;3.72;1.27;;;7.90;99.90;;;;;;5011317;28;20018;-57
2021/11/22 12:58:13;;;;;;;2.15;1.35;;;8.00;99.90;;;;;;5011750;28;20053;-58